createdAt,value
2022-07-29T00:01:53.989Z,2.08
2022-07-29T00:04:21.525Z,1.88
2022-07-29T00:06:48.708Z,2.33
2022-07-29T00:09:15.557Z,1.88
2022-07-29T00:11:42.302Z,2.00
2022-07-29T00:14:09.691Z,2.20
2022-07-29T00:16:36.483Z,2.08
2022-07-29T00:19:03.586Z,2.10
2022-07-29T00:21:30.527Z,2.20
2022-07-29T00:23:57.372Z,1.90
2022-07-29T00:26:24.533Z,1.90
2022-07-29T00:28:51.153Z,2.20
2022-07-29T00:31:17.852Z,2.25
2022-07-29T00:33:44.721Z,2.10
2022-07-29T00:36:11.461Z,2.10
2022-07-29T00:38:38.038Z,2.05
2022-07-29T00:41:04.696Z,2.03
2022-07-29T00:43:31.340Z,2.08
2022-07-29T00:45:57.962Z,2.35
2022-07-29T00:48:24.607Z,2.20
2022-07-29T00:50:51.575Z,2.20
2022-07-29T00:53:18.464Z,1.88
2022-07-29T00:55:45.155Z,2.10
2022-07-29T00:58:13.866Z,2.33
2022-07-29T01:00:41.716Z,1.88
2022-07-29T01:03:09.401Z,1.90
2022-07-29T01:05:48.528Z,2.33
2022-07-29T01:08:19.492Z,2.13
2022-07-29T01:10:47.841Z,2.20
2022-07-29T01:13:16.681Z,2.10
2022-07-29T01:15:48.977Z,1.98
2022-07-29T01:18:23.118Z,2.20
2022-07-29T01:21:19.999Z,2.28
2022-07-29T01:23:53.192Z,2.38
2022-07-29T01:26:47.734Z,2.40
2022-07-29T01:29:25.650Z,2.40
2022-07-29T01:32:22.579Z,2.20
2022-07-29T01:35:10.425Z,2.22
2022-07-29T01:37:58.235Z,2.30
2022-07-29T01:40:39.248Z,2.35
2022-07-29T01:43:17.032Z,2.10
2022-07-29T01:45:57.170Z,2.10
2022-07-29T01:48:40.162Z,2.10
2022-07-29T01:51:19.019Z,2.00
2022-07-29T01:54:11.394Z,2.05
2022-07-29T01:56:39.955Z,1.80
2022-07-29T01:59:08.709Z,2.05
2022-07-29T02:01:38.372Z,2.50
2022-07-29T02:04:07.286Z,2.10
2022-07-29T02:06:36.721Z,1.85
2022-07-29T02:09:04.269Z,2.22
2022-07-29T02:11:36.782Z,2.80
2022-07-29T02:14:04.756Z,1.88
2022-07-29T02:16:32.832Z,2.00
2022-07-29T02:19:02.757Z,2.28
2022-07-29T02:21:31.673Z,2.10
2022-07-29T02:24:01.800Z,2.38
2022-07-29T02:26:30.067Z,1.98
2022-07-29T02:28:58.341Z,2.03
2022-07-29T02:31:31.216Z,2.15
2022-07-29T02:33:59.158Z,1.90
2022-07-29T02:36:27.081Z,2.10
2022-07-29T02:38:58.281Z,2.22
2022-07-29T02:41:30.722Z,2.35
2022-07-29T02:44:04.519Z,2.10
2022-07-29T02:46:33.946Z,1.98
2022-07-29T02:49:14.376Z,2.00
2022-07-29T02:51:54.941Z,1.92
2022-07-29T02:54:39.203Z,1.73
2022-07-29T02:57:15.555Z,1.92
2022-07-29T02:59:44.309Z,2.08
2022-07-29T03:02:12.846Z,1.90
2022-07-29T03:04:42.448Z,1.77
2022-07-29T03:07:11.208Z,2.00
2022-07-29T03:09:38.566Z,1.80
2022-07-29T03:12:06.006Z,2.05
2022-07-29T03:14:33.277Z,2.00
2022-07-29T03:17:00.682Z,2.03
2022-07-29T03:19:28.146Z,2.17
2022-07-29T03:21:58.076Z,1.92
2022-07-29T03:24:33.144Z,2.03
2022-07-29T03:27:00.496Z,2.13
2022-07-29T03:29:32.925Z,1.90
2022-07-29T03:32:01.281Z,2.03
2022-07-29T03:34:29.349Z,1.92
2022-07-29T03:36:56.064Z,1.83
2022-07-29T03:39:26.365Z,1.70
2022-07-29T03:41:56.277Z,1.92
2022-07-29T03:44:24.686Z,2.00
2022-07-29T03:46:52.861Z,1.83
2022-07-29T03:49:21.168Z,1.88
2022-07-29T03:51:48.366Z,1.90
2022-07-29T03:54:15.838Z,2.10
2022-07-29T03:56:48.622Z,2.08
2022-07-29T03:59:17.088Z,1.70
2022-07-29T04:01:44.541Z,2.00
2022-07-29T04:04:11.693Z,1.88
2022-07-29T04:06:40.305Z,1.83
2022-07-29T04:09:07.154Z,1.95
2022-07-29T04:11:56.960Z,1.77
2022-07-29T04:14:24.637Z,2.13
2022-07-29T04:16:51.247Z,1.98
2022-07-29T04:19:17.858Z,2.00
2022-07-29T04:21:46.064Z,2.10
2022-07-29T04:24:12.961Z,2.00
2022-07-29T04:26:39.846Z,2.08
2022-07-29T04:29:06.517Z,1.83
2022-07-29T04:31:33.272Z,2.08
2022-07-29T04:33:59.939Z,2.20
2022-07-29T04:36:29.333Z,1.60
2022-07-29T04:38:56.537Z,1.70
2022-07-29T04:41:23.324Z,2.35
2022-07-29T04:43:50.123Z,1.60
2022-07-29T04:46:16.931Z,1.50
2022-07-29T04:48:45.907Z,1.83
2022-07-29T04:51:14.493Z,2.03
2022-07-29T04:53:47.362Z,2.38
2022-07-29T04:56:21.792Z,1.90
2022-07-29T04:58:48.584Z,2.10
2022-07-29T05:01:40.642Z,1.80
2022-07-29T05:04:07.428Z,2.08
2022-07-29T05:06:37.625Z,2.17
2022-07-29T05:09:04.238Z,1.98
2022-07-29T05:11:30.812Z,1.90
2022-07-29T05:13:57.496Z,2.20
2022-07-29T05:16:24.385Z,2.00
2022-07-29T05:18:51.061Z,2.33
2022-07-29T05:21:17.785Z,2.00
2022-07-29T05:23:44.403Z,1.75
2022-07-29T05:26:11.006Z,1.95
2022-07-29T05:28:37.790Z,2.08
2022-07-29T05:31:04.460Z,2.38
2022-07-29T05:33:34.712Z,1.83
2022-07-29T05:36:03.052Z,1.98
2022-07-29T05:38:29.938Z,2.38
2022-07-29T05:40:59.478Z,2.10
2022-07-29T05:43:29.666Z,2.20
2022-07-29T05:45:56.846Z,2.03
2022-07-29T05:48:23.528Z,2.00
2022-07-29T05:50:50.103Z,2.20
2022-07-29T05:53:19.378Z,2.08
2022-07-29T05:55:47.714Z,2.00
2022-07-29T05:58:14.304Z,2.00
2022-07-29T06:00:40.994Z,1.77
2022-07-29T06:03:07.738Z,2.00
2022-07-29T06:05:34.527Z,1.92
2022-07-29T06:08:01.228Z,2.00
2022-07-29T06:10:27.903Z,1.75
2022-07-29T06:12:54.760Z,1.88
2022-07-29T06:15:21.395Z,2.05
2022-07-29T06:17:59.321Z,1.90
2022-07-29T06:20:30.689Z,1.77
2022-07-29T06:22:57.858Z,2.17
2022-07-29T06:25:24.476Z,1.92
2022-07-29T06:27:51.063Z,1.95
2022-07-29T06:30:17.744Z,2.15
2022-07-29T06:32:44.397Z,2.15
2022-07-29T06:35:41.363Z,1.95
2022-07-29T06:37:59.487Z,1.98
2022-07-29T06:40:45.715Z,2.10
2022-07-29T06:43:12.329Z,2.45
2022-07-29T06:45:42.190Z,1.92
2022-07-29T06:48:09.683Z,2.00
2022-07-29T06:50:36.296Z,1.88
2022-07-29T06:53:03.499Z,2.03
2022-07-29T06:55:30.125Z,2.15
2022-07-29T06:57:56.735Z,1.70
2022-07-29T07:00:23.358Z,1.90
2022-07-29T07:02:50.042Z,2.10
2022-07-29T07:05:16.696Z,1.88
2022-07-29T07:07:43.397Z,1.67
2022-07-29T07:10:10.161Z,2.10
2022-07-29T07:12:36.801Z,1.80
2022-07-29T07:15:04.071Z,2.30
2022-07-29T07:17:30.635Z,2.00
2022-07-29T07:19:57.299Z,2.03
2022-07-29T07:22:23.903Z,1.55
2022-07-29T07:24:50.456Z,2.00
2022-07-29T07:27:17.083Z,2.00
2022-07-29T07:29:44.304Z,1.58
2022-07-29T07:32:11.306Z,1.65
2022-07-29T07:34:38.986Z,1.80
2022-07-29T07:37:06.512Z,1.98
2022-07-29T07:39:33.269Z,1.90
2022-07-29T07:42:00.167Z,1.45
2022-07-29T07:44:26.862Z,1.73
2022-07-29T07:46:53.597Z,2.20
2022-07-29T07:49:21.673Z,1.73
2022-07-29T07:51:50.776Z,1.65
2022-07-29T07:54:18.709Z,1.63
2022-07-29T07:56:50.806Z,1.58
2022-07-29T07:59:20.255Z,1.60
2022-07-29T08:01:47.580Z,1.77
2022-07-29T08:04:14.948Z,1.70
2022-07-29T08:06:41.781Z,2.00
2022-07-29T08:09:28.184Z,1.85
2022-07-29T08:11:55.638Z,1.70
2022-07-29T08:14:22.308Z,1.70
2022-07-29T08:16:49.105Z,1.40
2022-07-29T08:19:15.858Z,1.70
2022-07-29T08:21:42.522Z,1.80
2022-07-29T08:24:27.771Z,1.48
2022-07-29T08:26:54.403Z,1.60
2022-07-29T08:29:21.133Z,1.67
2022-07-29T08:31:47.905Z,1.92
2022-07-29T08:34:14.649Z,1.52
2022-07-29T08:36:41.292Z,1.60
2022-07-29T08:39:08.044Z,1.60
2022-07-29T08:41:34.859Z,1.70
2022-07-29T08:44:01.506Z,1.48
2022-07-29T08:46:28.413Z,1.65
2022-07-29T08:48:56.771Z,1.60
2022-07-29T08:51:25.323Z,1.27
2022-07-29T08:53:52.103Z,1.70
2022-07-29T08:56:20.442Z,1.23
2022-07-29T08:58:49.865Z,1.50
2022-07-29T09:01:23.459Z,1.55
2022-07-29T09:04:10.129Z,1.33
2022-07-29T09:06:41.976Z,1.30
2022-07-29T09:09:09.258Z,1.50
2022-07-29T09:11:36.096Z,1.30
2022-07-29T09:14:02.731Z,1.52
2022-07-29T09:16:55.837Z,1.60
2022-07-29T09:19:26.664Z,1.60
2022-07-29T09:22:00.018Z,1.33
2022-07-29T09:24:48.375Z,1.40
2022-07-29T09:27:27.647Z,1.58
2022-07-29T09:30:03.271Z,1.30
2022-07-29T09:32:31.050Z,1.42
2022-07-29T09:35:22.982Z,1.40
2022-07-29T09:37:50.289Z,1.60
2022-07-29T09:40:23.345Z,1.50
2022-07-29T09:42:50.901Z,1.55
2022-07-29T09:45:33.955Z,1.50
2022-07-29T09:48:13.374Z,1.35
2022-07-29T09:50:47.266Z,1.30
2022-07-29T09:53:30.484Z,1.42
2022-07-29T09:55:57.238Z,1.40
2022-07-29T09:58:23.930Z,1.63
2022-07-29T10:00:52.358Z,1.30
2022-07-29T10:03:22.604Z,1.23
2022-07-29T10:06:10.732Z,1.35
2022-07-29T10:08:38.375Z,1.35
2022-07-29T10:11:16.338Z,1.77
2022-07-29T10:13:44.924Z,1.48
2022-07-29T10:16:13.910Z,1.40
2022-07-29T10:18:42.242Z,1.33
2022-07-29T10:21:10.267Z,1.42
2022-07-29T10:23:46.134Z,1.50
2022-07-29T10:26:15.391Z,1.50
2022-07-29T10:28:42.102Z,1.73
2022-07-29T10:31:16.494Z,1.35
2022-07-29T10:34:27.113Z,1.10
2022-07-29T10:37:04.808Z,1.63
2022-07-29T10:40:24.006Z,1.50
2022-07-29T10:42:54.471Z,1.20
2022-07-29T10:45:22.676Z,1.45
2022-07-29T10:47:49.490Z,1.20
2022-07-29T10:50:17.403Z,1.38
2022-07-29T10:52:54.417Z,1.55
2022-07-29T10:55:43.117Z,1.60
2022-07-29T10:58:17.820Z,1.38
2022-07-29T11:00:49.656Z,1.55
2022-07-29T11:03:49.346Z,1.40
2022-07-29T11:06:18.037Z,1.75
2022-07-29T11:09:18.120Z,1.35
2022-07-29T11:11:47.682Z,1.83
2022-07-29T11:14:19.804Z,1.25
2022-07-29T11:17:13.979Z,1.20
2022-07-29T11:19:46.764Z,1.30
2022-07-29T11:22:35.095Z,1.40
2022-07-29T11:25:16.998Z,1.20
2022-07-29T11:27:45.781Z,1.02
2022-07-29T11:30:13.124Z,1.50
2022-07-29T11:32:44.786Z,1.50
2022-07-29T11:35:37.710Z,1.13
2022-07-29T11:38:32.160Z,1.52
2022-07-29T11:41:23.733Z,1.38
2022-07-29T11:43:59.414Z,1.10
2022-07-29T11:46:50.579Z,1.08
2022-07-29T11:49:32.541Z,1.60
2022-07-29T11:52:02.588Z,1.42
2022-07-29T11:54:38.789Z,1.25
2022-07-29T11:57:35.954Z,1.10
2022-07-29T12:00:20.370Z,1.30
2022-07-29T12:03:08.713Z,1.05
2022-07-29T12:05:48.273Z,1.20
2022-07-29T12:08:20.831Z,1.20
2022-07-29T12:10:49.603Z,0.93
2022-07-29T12:13:21.168Z,1.00
2022-07-29T12:16:01.139Z,1.10
2022-07-29T12:18:29.232Z,0.77
2022-07-29T12:21:03.210Z,0.90
2022-07-29T12:23:34.523Z,1.30
2022-07-29T12:26:07.682Z,1.02
2022-07-29T12:28:39.594Z,0.95
2022-07-29T12:31:06.512Z,0.90
2022-07-29T12:33:35.881Z,1.20
2022-07-29T12:36:10.391Z,1.33
2022-07-29T12:38:43.369Z,1.00
2022-07-29T12:41:13.787Z,0.80
2022-07-29T12:43:54.148Z,1.00
2022-07-29T12:46:32.488Z,1.00
2022-07-29T12:48:59.619Z,1.23
2022-07-29T12:51:37.934Z,0.90
2022-07-29T12:54:08.866Z,0.90
2022-07-29T12:56:43.961Z,1.17
2022-07-29T12:59:19.544Z,1.40
2022-07-29T13:01:49.006Z,0.95
2022-07-29T13:04:34.082Z,1.20
2022-07-29T13:07:04.956Z,1.10
2022-07-29T13:09:39.300Z,1.08
2022-07-29T13:12:11.121Z,0.93
2022-07-29T13:14:48.418Z,1.02
2022-07-29T13:17:28.625Z,1.15
2022-07-29T13:20:13.456Z,1.10
2022-07-29T13:22:41.227Z,0.95
2022-07-29T13:25:08.218Z,1.33
2022-07-29T13:27:37.587Z,1.15
2022-07-29T13:30:09.444Z,1.20
2022-07-29T13:32:37.358Z,0.90
2022-07-29T13:35:07.257Z,1.27
2022-07-29T13:37:35.915Z,1.20
2022-07-29T13:40:04.319Z,1.30
2022-07-29T13:42:31.319Z,1.15
2022-07-29T13:44:58.163Z,1.27
2022-07-29T13:47:32.176Z,1.27
2022-07-29T13:50:03.112Z,1.20
2022-07-29T13:52:30.051Z,1.10
2022-07-29T13:54:57.280Z,1.10
2022-07-29T13:57:24.030Z,1.20
2022-07-29T13:59:54.133Z,0.88
2022-07-29T14:02:25.614Z,1.10
2022-07-29T14:04:54.389Z,1.20
2022-07-29T14:07:21.411Z,1.20
2022-07-29T14:09:49.122Z,1.20
2022-07-29T14:12:15.832Z,1.15
2022-07-29T14:14:42.613Z,1.20
2022-07-29T14:17:09.966Z,1.20
2022-07-29T14:19:36.944Z,1.38
2022-07-29T14:22:08.582Z,1.40
2022-07-29T14:24:37.227Z,1.45
2022-07-29T14:27:04.974Z,1.25
2022-07-29T14:29:37.483Z,1.38
2022-07-29T14:32:11.040Z,1.33
2022-07-29T14:34:39.196Z,1.30
2022-07-29T14:37:06.857Z,1.30
2022-07-29T14:39:39.341Z,1.35
2022-07-29T14:42:09.936Z,1.23
2022-07-29T14:44:38.321Z,1.20
2022-07-29T14:47:07.422Z,1.17
2022-07-29T14:49:34.919Z,1.30
2022-07-29T14:52:01.902Z,1.15
2022-07-29T14:54:28.556Z,1.30
2022-07-29T14:56:57.888Z,1.17
2022-07-29T14:59:24.718Z,1.17
2022-07-29T15:01:51.652Z,1.20
2022-07-29T15:04:19.058Z,1.33
2022-07-29T15:06:45.775Z,1.30
2022-07-29T15:09:12.783Z,1.73
2022-07-29T15:11:39.487Z,1.30
2022-07-29T15:14:07.236Z,1.48
2022-07-29T15:16:36.578Z,1.80
2022-07-29T15:19:03.757Z,1.40
2022-07-29T15:21:30.497Z,1.30
2022-07-29T15:23:57.205Z,1.52
2022-07-29T15:26:24.549Z,1.30
2022-07-29T15:28:51.267Z,1.65
2022-07-29T15:31:19.700Z,1.75
2022-07-29T15:33:46.441Z,1.50
2022-07-29T15:36:25.410Z,1.50
2022-07-29T15:39:00.074Z,1.40
2022-07-29T15:41:26.731Z,1.50
2022-07-29T15:43:53.320Z,1.73
2022-07-29T15:46:39.436Z,1.48
2022-07-29T15:49:07.212Z,1.48
2022-07-29T15:51:34.390Z,1.58
2022-07-29T15:54:05.458Z,1.48
2022-07-29T15:56:32.483Z,1.40
2022-07-29T15:58:59.436Z,1.60
2022-07-29T16:01:27.774Z,1.35
2022-07-29T16:03:54.768Z,1.50
2022-07-29T16:06:21.619Z,1.50
2022-07-29T16:08:48.389Z,1.38
2022-07-29T16:11:15.057Z,1.20
2022-07-29T16:13:41.773Z,1.48
2022-07-29T16:16:08.810Z,1.75
2022-07-29T16:18:35.499Z,1.50
2022-07-29T16:21:02.079Z,1.40
2022-07-29T16:23:28.689Z,1.73
2022-07-29T16:26:02.586Z,1.40
2022-07-29T16:28:30.647Z,1.50
2022-07-29T16:30:57.824Z,1.67
2022-07-29T16:33:24.667Z,1.50
2022-07-29T16:35:53.999Z,1.40
2022-07-29T16:38:20.987Z,1.67
2022-07-29T16:40:47.667Z,1.30
2022-07-29T16:43:14.345Z,1.63
2022-07-29T16:45:45.183Z,1.80
2022-07-29T16:48:17.927Z,1.50
2022-07-29T16:50:45.650Z,1.65
2022-07-29T16:53:12.379Z,2.10
2022-07-29T16:55:42.124Z,1.50
2022-07-29T16:58:09.697Z,1.52
2022-07-29T17:00:36.511Z,1.85
2022-07-29T17:03:03.388Z,1.50
2022-07-29T17:05:29.977Z,1.60
2022-07-29T17:08:16.733Z,1.33
2022-07-29T17:10:43.623Z,1.58
2022-07-29T17:13:11.173Z,1.38
2022-07-29T17:15:37.826Z,1.40
2022-07-29T17:18:12.535Z,1.70
2022-07-29T17:20:41.359Z,1.80
2022-07-29T17:23:08.101Z,1.58
2022-07-29T17:25:34.788Z,1.40
2022-07-29T17:28:01.519Z,1.88
2022-07-29T17:30:29.052Z,2.25
2022-07-29T17:32:55.826Z,1.92
2022-07-29T17:35:41.140Z,1.60
2022-07-29T17:38:07.769Z,1.90
2022-07-29T17:40:34.411Z,1.90
2022-07-29T17:45:55.883Z,1.92
2022-07-29T17:48:26.385Z,1.58
2022-07-29T17:50:54.196Z,1.75
2022-07-29T17:53:21.018Z,1.80
2022-07-29T17:55:48.628Z,2.00
2022-07-29T18:00:58.551Z,2.10
2022-07-29T18:03:25.509Z,1.70
2022-07-29T18:05:53.416Z,2.70
2022-07-29T18:08:20.407Z,2.20
2022-07-29T18:10:48.183Z,2.10
2022-07-29T18:13:16.424Z,2.53
2022-07-29T18:15:45.037Z,2.78
2022-07-29T18:18:13.020Z,2.38
2022-07-29T18:20:39.947Z,2.40
2022-07-29T18:23:07.059Z,2.60
2022-07-29T18:25:33.730Z,2.20
2022-07-29T18:28:01.012Z,2.75
2022-07-29T18:30:29.364Z,2.60
2022-07-29T18:33:19.854Z,3.08
2022-07-29T18:35:44.421Z,2.78
2022-07-29T18:38:12.615Z,2.65
2022-07-29T18:40:42.068Z,2.50
2022-07-29T18:43:09.024Z,2.28
2022-07-29T18:45:36.734Z,2.20
2022-07-29T18:48:12.625Z,2.60
2022-07-29T18:50:40.423Z,2.42
2022-07-29T18:53:07.519Z,2.72
2022-07-29T18:55:35.712Z,2.33
2022-07-29T18:58:14.027Z,2.45
2022-07-29T19:00:40.792Z,2.30
2022-07-29T19:03:08.533Z,2.47
2022-07-29T19:05:35.953Z,2.40
2022-07-29T19:08:02.770Z,2.20
2022-07-29T19:10:31.079Z,2.30
2022-07-29T19:12:57.879Z,2.88
2022-07-29T19:15:24.824Z,2.30
2022-07-29T19:17:51.505Z,2.58
2022-07-29T19:20:18.308Z,2.47
2022-07-29T19:22:45.550Z,2.55
2022-07-29T19:25:12.341Z,2.92
2022-07-29T19:27:39.143Z,2.65
2022-07-29T19:30:08.003Z,2.70
2022-07-29T19:32:34.727Z,2.70
2022-07-29T19:35:20.221Z,2.70
2022-07-29T19:37:47.122Z,2.70
2022-07-29T19:40:13.871Z,3.22
2022-07-29T19:42:40.497Z,2.80
2022-07-29T19:45:07.743Z,2.42
2022-07-29T19:47:34.510Z,2.55
2022-07-29T19:50:01.466Z,2.30
2022-07-29T19:52:28.566Z,2.90
2022-07-29T19:54:55.200Z,3.03
2022-07-29T19:57:21.889Z,3.10
2022-07-29T19:59:48.502Z,3.00
2022-07-29T20:02:16.694Z,3.40
2022-07-29T20:04:43.360Z,3.58
2022-07-29T20:07:10.017Z,3.35
2022-07-29T20:09:36.833Z,3.78
2022-07-29T20:12:04.691Z,2.88
2022-07-29T20:14:31.307Z,3.72
2022-07-29T20:16:58.327Z,3.30
2022-07-29T20:19:25.112Z,3.42
2022-07-29T20:21:51.926Z,2.85
2022-07-29T20:24:19.289Z,2.97
2022-07-29T20:26:46.079Z,3.35
2022-07-29T20:29:12.818Z,2.47
2022-07-29T20:31:39.553Z,2.90
2022-07-29T20:34:06.275Z,3.00
2022-07-29T20:36:33.229Z,2.60
2022-07-29T20:39:00.626Z,2.63
2022-07-29T20:41:28.905Z,3.10
2022-07-29T20:43:58.742Z,2.70
2022-07-29T20:46:25.531Z,2.58
2022-07-29T20:48:53.599Z,2.65
2022-07-29T20:51:21.095Z,2.70
2022-07-29T20:59:17.663Z,2.50
2022-07-29T21:01:44.612Z,2.78
2022-07-29T21:04:11.549Z,2.92
2022-07-29T21:06:38.450Z,2.50
2022-07-29T21:09:05.420Z,2.85
2022-07-29T21:11:43.258Z,2.40
2022-07-29T21:14:38.033Z,2.47
2022-07-29T21:17:07.379Z,2.38
2022-07-29T21:19:35.014Z,2.22
2022-07-29T21:22:02.010Z,2.58
2022-07-29T21:24:29.052Z,2.60
2022-07-29T21:27:21.196Z,2.53
2022-07-29T21:29:48.396Z,2.60
2022-07-29T21:32:30.054Z,2.20
2022-07-29T21:34:58.350Z,2.40
2022-07-29T21:37:25.243Z,1.92
2022-07-29T21:39:52.214Z,2.60
2022-07-29T21:42:21.671Z,2.42
2022-07-29T21:44:50.142Z,2.53
2022-07-29T21:47:16.814Z,2.38
2022-07-29T21:49:43.497Z,2.67
2022-07-29T21:52:11.446Z,2.20
2022-07-29T21:54:38.155Z,2.45
2022-07-29T21:57:08.514Z,2.63
2022-07-29T21:59:35.449Z,2.92
2022-07-29T22:02:02.323Z,2.63
2022-07-29T22:04:30.504Z,2.40
2022-07-29T22:06:59.161Z,2.40
2022-07-29T22:09:26.115Z,2.33
2022-07-29T22:11:53.419Z,2.70
2022-07-29T22:14:21.309Z,2.63
2022-07-29T22:16:48.734Z,2.70
2022-07-29T22:19:16.097Z,2.50
2022-07-29T22:21:43.251Z,2.40
2022-07-29T22:24:10.637Z,2.67
2022-07-29T22:26:38.435Z,3.00
2022-07-29T22:29:05.555Z,2.50
2022-07-29T22:31:32.361Z,3.15
2022-07-29T22:33:59.194Z,2.35
2022-07-29T22:36:26.622Z,2.78
2022-07-29T22:38:53.368Z,2.72
2022-07-29T22:41:20.087Z,2.38
2022-07-29T22:43:47.249Z,2.55
2022-07-29T22:46:15.731Z,2.38
2022-07-29T22:48:42.813Z,2.60
2022-07-29T22:51:09.476Z,1.90
2022-07-29T22:53:37.214Z,2.50
2022-07-29T22:56:04.088Z,2.60
2022-07-29T22:58:30.857Z,2.35
2022-07-29T23:00:57.952Z,2.28
2022-07-29T23:03:24.707Z,2.42
2022-07-29T23:05:51.871Z,2.60
2022-07-29T23:08:19.305Z,2.80
2022-07-29T23:10:46.253Z,2.40
2022-07-29T23:13:13.458Z,2.75
2022-07-29T23:15:41.058Z,2.65
2022-07-29T23:18:08.086Z,2.78
2022-07-29T23:20:35.008Z,2.42
2022-07-29T23:23:01.980Z,2.20
2022-07-29T23:25:28.715Z,2.70
2022-07-29T23:27:55.342Z,2.88
2022-07-29T23:30:23.328Z,2.65
2022-07-29T23:32:50.612Z,2.80
2022-07-29T23:35:17.285Z,2.60
2022-07-29T23:37:44.084Z,2.20
2022-07-29T23:40:14.726Z,2.65
2022-07-29T23:42:42.374Z,2.33
2022-07-29T23:45:10.620Z,2.95
2022-07-29T23:47:37.369Z,2.90
2022-07-29T23:50:05.541Z,2.58
2022-07-29T23:52:33.135Z,2.55
2022-07-29T23:55:37.406Z,2.63
2022-07-29T23:57:49.233Z,2.47
